sensor_id;sensor_type;location;lat;lon;timestamp;P1;durP1;ratioP1;P2;durP2;ratioP2
65073;SDS011;52218;51.224;-2.328;2022-11-24T00:03:28;3.90;;;1.02;;
65073;SDS011;52218;51.224;-2.328;2022-11-24T00:07:10;2.88;;;0.82;;
65073;SDS011;52218;51.224;-2.328;2022-11-24T00:10:52;4.32;;;0.85;;
65073;SDS011;52218;51.224;-2.328;2022-11-24T00:14:34;3.63;;;0.70;;
65073;SDS011;52218;51.224;-2.328;2022-11-24T00:18:16;5.90;;;0.85;;
65073;SDS011;52218;51.224;-2.328;2022-11-24T00:21:58;4.07;;;0.77;;
65073;SDS011;52218;51.224;-2.328;2022-11-24T00:25:40;2.92;;;0.80;;
65073;SDS011;52218;51.224;-2.328;2022-11-24T00:29:22;2.85;;;0.70;;
65073;SDS011;52218;51.224;-2.328;2022-11-24T00:33:04;3.28;;;1.02;;
65073;SDS011;52218;51.224;-2.328;2022-11-24T00:36:46;3.47;;;0.90;;
65073;SDS011;52218;51.224;-2.328;2022-11-24T00:40:28;3.22;;;0.80;;
65073;SDS011;52218;51.224;-2.328;2022-11-24T00:44:15;4.00;;;0.90;;
65073;SDS011;52218;51.224;-2.328;2022-11-24T00:47:57;3.45;;;1.10;;
65073;SDS011;52218;51.224;-2.328;2022-11-24T00:51:39;7.85;;;1.63;;
65073;SDS011;52218;51.224;-2.328;2022-11-24T00:55:21;6.72;;;1.30;;
65073;SDS011;52218;51.224;-2.328;2022-11-24T00:59:03;3.90;;;1.00;;
65073;SDS011;52218;51.224;-2.328;2022-11-24T01:02:45;6.85;;;1.30;;
65073;SDS011;52218;51.224;-2.328;2022-11-24T01:06:27;6.38;;;1.60;;
65073;SDS011;52218;51.224;-2.328;2022-11-24T01:10:10;4.65;;;1.08;;
65073;SDS011;52218;51.224;-2.328;2022-11-24T01:13:53;7.03;;;1.20;;
65073;SDS011;52218;51.224;-2.328;2022-11-24T01:17:37;4.40;;;1.30;;
65073;SDS011;52218;51.224;-2.328;2022-11-24T01:21:19;4.55;;;1.00;;
65073;SDS011;52218;51.224;-2.328;2022-11-24T01:25:01;4.80;;;1.50;;
65073;SDS011;52218;51.224;-2.328;2022-11-24T01:28:44;5.35;;;1.30;;
65073;SDS011;52218;51.224;-2.328;2022-11-24T01:32:28;9.38;;;1.70;;
65073;SDS011;52218;51.224;-2.328;2022-11-24T01:36:10;6.90;;;1.60;;
65073;SDS011;52218;51.224;-2.328;2022-11-24T01:39:52;5.95;;;1.30;;
65073;SDS011;52218;51.224;-2.328;2022-11-24T01:43:34;7.20;;;1.35;;
65073;SDS011;52218;51.224;-2.328;2022-11-24T01:47:31;13.25;;;1.50;;
65073;SDS011;52218;51.224;-2.328;2022-11-24T01:51:19;7.15;;;1.30;;
65073;SDS011;52218;51.224;-2.328;2022-11-24T01:55:06;5.45;;;1.50;;
65073;SDS011;52218;51.224;-2.328;2022-11-24T01:58:54;12.50;;;2.38;;
65073;SDS011;52218;51.224;-2.328;2022-11-24T02:02:40;7.55;;;1.38;;
65073;SDS011;52218;51.224;-2.328;2022-11-24T02:06:26;7.45;;;1.70;;
65073;SDS011;52218;51.224;-2.328;2022-11-24T02:10:13;7.90;;;1.88;;
65073;SDS011;52218;51.224;-2.328;2022-11-24T02:13:55;8.23;;;1.63;;
65073;SDS011;52218;51.224;-2.328;2022-11-24T02:17:38;5.72;;;1.50;;
65073;SDS011;52218;51.224;-2.328;2022-11-24T02:21:20;7.00;;;1.85;;
65073;SDS011;52218;51.224;-2.328;2022-11-24T02:29:09;7.18;;;1.63;;
65073;SDS011;52218;51.224;-2.328;2022-11-24T02:32:52;8.85;;;1.60;;
65073;SDS011;52218;51.224;-2.328;2022-11-24T02:36:34;7.40;;;1.60;;
65073;SDS011;52218;51.224;-2.328;2022-11-24T02:40:17;6.93;;;1.73;;
65073;SDS011;52218;51.224;-2.328;2022-11-24T02:44:05;7.63;;;1.60;;
65073;SDS011;52218;51.224;-2.328;2022-11-24T02:47:47;10.70;;;1.85;;
65073;SDS011;52218;51.224;-2.328;2022-11-24T02:51:29;7.15;;;1.65;;
65073;SDS011;52218;51.224;-2.328;2022-11-24T02:55:11;7.10;;;1.50;;
65073;SDS011;52218;51.224;-2.328;2022-11-24T02:58:53;10.90;;;1.80;;
65073;SDS011;52218;51.224;-2.328;2022-11-24T03:02:35;8.90;;;1.55;;
65073;SDS011;52218;51.224;-2.328;2022-11-24T03:06:17;11.27;;;2.53;;
65073;SDS011;52218;51.224;-2.328;2022-11-24T03:09:59;12.57;;;2.00;;
65073;SDS011;52218;51.224;-2.328;2022-11-24T03:13:41;12.63;;;2.47;;
65073;SDS011;52218;51.224;-2.328;2022-11-24T03:17:23;7.97;;;1.55;;
65073;SDS011;52218;51.224;-2.328;2022-11-24T03:21:05;10.15;;;1.50;;
65073;SDS011;52218;51.224;-2.328;2022-11-24T03:24:47;12.65;;;1.67;;
65073;SDS011;52218;51.224;-2.328;2022-11-24T03:28:29;11.15;;;1.95;;
65073;SDS011;52218;51.224;-2.328;2022-11-24T03:32:10;8.10;;;1.52;;
65073;SDS011;52218;51.224;-2.328;2022-11-24T03:35:52;8.40;;;2.03;;
65073;SDS011;52218;51.224;-2.328;2022-11-24T03:39:34;5.13;;;1.20;;
65073;SDS011;52218;51.224;-2.328;2022-11-24T03:43:16;7.75;;;1.45;;
65073;SDS011;52218;51.224;-2.328;2022-11-24T03:46:58;7.43;;;1.80;;
65073;SDS011;52218;51.224;-2.328;2022-11-24T03:50:40;9.38;;;1.45;;
65073;SDS011;52218;51.224;-2.328;2022-11-24T03:54:22;11.73;;;1.75;;
65073;SDS011;52218;51.224;-2.328;2022-11-24T03:58:04;9.88;;;2.30;;
65073;SDS011;52218;51.224;-2.328;2022-11-24T04:01:46;7.60;;;1.58;;
65073;SDS011;52218;51.224;-2.328;2022-11-24T04:05:28;12.88;;;2.10;;
65073;SDS011;52218;51.224;-2.328;2022-11-24T04:09:10;8.93;;;1.75;;
65073;SDS011;52218;51.224;-2.328;2022-11-24T04:12:52;12.13;;;2.20;;
65073;SDS011;52218;51.224;-2.328;2022-11-24T04:16:35;9.27;;;1.90;;
65073;SDS011;52218;51.224;-2.328;2022-11-24T04:20:17;8.20;;;1.70;;
65073;SDS011;52218;51.224;-2.328;2022-11-24T04:23:59;8.85;;;1.77;;
65073;SDS011;52218;51.224;-2.328;2022-11-24T04:27:41;11.95;;;2.00;;
65073;SDS011;52218;51.224;-2.328;2022-11-24T04:31:23;12.60;;;1.92;;
65073;SDS011;52218;51.224;-2.328;2022-11-24T04:35:05;7.50;;;2.05;;
65073;SDS011;52218;51.224;-2.328;2022-11-24T04:38:48;12.43;;;1.90;;
65073;SDS011;52218;51.224;-2.328;2022-11-24T04:42:52;6.68;;;1.65;;
65073;SDS011;52218;51.224;-2.328;2022-11-24T04:46:35;10.88;;;1.65;;
65073;SDS011;52218;51.224;-2.328;2022-11-24T04:50:17;12.90;;;2.38;;
65073;SDS011;52218;51.224;-2.328;2022-11-24T04:53:59;10.05;;;2.22;;
65073;SDS011;52218;51.224;-2.328;2022-11-24T04:57:41;12.82;;;3.05;;
65073;SDS011;52218;51.224;-2.328;2022-11-24T05:01:23;6.22;;;1.60;;
65073;SDS011;52218;51.224;-2.328;2022-11-24T05:05:06;10.10;;;2.05;;
65073;SDS011;52218;51.224;-2.328;2022-11-24T05:08:51;11.00;;;2.05;;
65073;SDS011;52218;51.224;-2.328;2022-11-24T05:12:33;11.48;;;1.90;;
65073;SDS011;52218;51.224;-2.328;2022-11-24T05:16:15;7.68;;;1.48;;
65073;SDS011;52218;51.224;-2.328;2022-11-24T05:19:58;11.60;;;1.85;;
65073;SDS011;52218;51.224;-2.328;2022-11-24T05:23:40;10.52;;;2.13;;
65073;SDS011;52218;51.224;-2.328;2022-11-24T05:27:22;9.05;;;1.75;;
65073;SDS011;52218;51.224;-2.328;2022-11-24T05:31:04;15.15;;;2.05;;
65073;SDS011;52218;51.224;-2.328;2022-11-24T05:34:46;9.68;;;1.70;;
65073;SDS011;52218;51.224;-2.328;2022-11-24T05:38:29;13.50;;;2.47;;
65073;SDS011;52218;51.224;-2.328;2022-11-24T05:42:11;8.23;;;1.63;;
65073;SDS011;52218;51.224;-2.328;2022-11-24T05:46:12;11.63;;;2.63;;
65073;SDS011;52218;51.224;-2.328;2022-11-24T05:49:54;8.68;;;1.65;;
65073;SDS011;52218;51.224;-2.328;2022-11-24T05:53:35;10.73;;;1.98;;
65073;SDS011;52218;51.224;-2.328;2022-11-24T05:57:17;9.35;;;1.98;;
65073;SDS011;52218;51.224;-2.328;2022-11-24T06:00:59;11.77;;;2.33;;
65073;SDS011;52218;51.224;-2.328;2022-11-24T06:04:45;8.73;;;1.83;;
65073;SDS011;52218;51.224;-2.328;2022-11-24T06:08:27;10.13;;;1.77;;
65073;SDS011;52218;51.224;-2.328;2022-11-24T06:12:12;10.43;;;1.95;;
65073;SDS011;52218;51.224;-2.328;2022-11-24T06:15:54;12.10;;;1.90;;
65073;SDS011;52218;51.224;-2.328;2022-11-24T06:19:39;9.50;;;2.22;;
65073;SDS011;52218;51.224;-2.328;2022-11-24T06:23:22;8.32;;;2.05;;
65073;SDS011;52218;51.224;-2.328;2022-11-24T06:27:04;8.82;;;2.25;;
65073;SDS011;52218;51.224;-2.328;2022-11-24T06:30:47;11.30;;;1.90;;
65073;SDS011;52218;51.224;-2.328;2022-11-24T06:34:28;7.20;;;1.50;;
65073;SDS011;52218;51.224;-2.328;2022-11-24T06:38:10;10.90;;;1.70;;
65073;SDS011;52218;51.224;-2.328;2022-11-24T06:41:52;9.60;;;1.92;;
65073;SDS011;52218;51.224;-2.328;2022-11-24T06:45:34;7.65;;;1.83;;
65073;SDS011;52218;51.224;-2.328;2022-11-24T06:49:16;7.93;;;1.77;;
65073;SDS011;52218;51.224;-2.328;2022-11-24T06:52:59;10.20;;;1.48;;
65073;SDS011;52218;51.224;-2.328;2022-11-24T06:56:40;9.90;;;1.98;;
65073;SDS011;52218;51.224;-2.328;2022-11-24T07:00:22;10.70;;;1.88;;
65073;SDS011;52218;51.224;-2.328;2022-11-24T07:04:05;14.60;;;1.60;;
65073;SDS011;52218;51.224;-2.328;2022-11-24T07:07:47;11.05;;;1.77;;
65073;SDS011;52218;51.224;-2.328;2022-11-24T07:11:31;9.07;;;1.52;;
65073;SDS011;52218;51.224;-2.328;2022-11-24T07:15:13;12.05;;;2.20;;
65073;SDS011;52218;51.224;-2.328;2022-11-24T07:18:55;12.25;;;2.13;;
65073;SDS011;52218;51.224;-2.328;2022-11-24T07:22:38;7.72;;;1.67;;
65073;SDS011;52218;51.224;-2.328;2022-11-24T07:26:20;13.65;;;2.17;;
65073;SDS011;52218;51.224;-2.328;2022-11-24T07:30:03;15.07;;;2.42;;
65073;SDS011;52218;51.224;-2.328;2022-11-24T07:33:49;13.52;;;2.22;;
65073;SDS011;52218;51.224;-2.328;2022-11-24T07:37:34;12.00;;;2.03;;
65073;SDS011;52218;51.224;-2.328;2022-11-24T07:41:17;14.45;;;2.03;;
65073;SDS011;52218;51.224;-2.328;2022-11-24T07:45:00;12.35;;;2.33;;
65073;SDS011;52218;51.224;-2.328;2022-11-24T07:48:42;17.67;;;2.65;;
65073;SDS011;52218;51.224;-2.328;2022-11-24T07:52:24;11.73;;;2.75;;
65073;SDS011;52218;51.224;-2.328;2022-11-24T07:56:07;12.82;;;2.50;;
65073;SDS011;52218;51.224;-2.328;2022-11-24T07:59:50;18.65;;;2.63;;
65073;SDS011;52218;51.224;-2.328;2022-11-24T08:03:32;17.65;;;2.65;;
65073;SDS011;52218;51.224;-2.328;2022-11-24T08:07:14;20.85;;;2.80;;
65073;SDS011;52218;51.224;-2.328;2022-11-24T08:10:56;17.98;;;2.33;;
65073;SDS011;52218;51.224;-2.328;2022-11-24T08:14:38;17.55;;;3.30;;
65073;SDS011;52218;51.224;-2.328;2022-11-24T08:18:20;16.02;;;2.80;;
65073;SDS011;52218;51.224;-2.328;2022-11-24T08:22:04;11.90;;;2.30;;
65073;SDS011;52218;51.224;-2.328;2022-11-24T08:25:46;17.02;;;2.58;;
65073;SDS011;52218;51.224;-2.328;2022-11-24T08:29:34;13.65;;;3.05;;
65073;SDS011;52218;51.224;-2.328;2022-11-24T08:33:16;20.83;;;3.50;;
65073;SDS011;52218;51.224;-2.328;2022-11-24T08:36:58;17.02;;;2.53;;
65073;SDS011;52218;51.224;-2.328;2022-11-24T08:40:40;14.40;;;2.80;;
65073;SDS011;52218;51.224;-2.328;2022-11-24T08:44:22;19.92;;;3.33;;
65073;SDS011;52218;51.224;-2.328;2022-11-24T08:48:04;21.63;;;4.05;;
65073;SDS011;52218;51.224;-2.328;2022-11-24T08:51:46;16.30;;;2.70;;
65073;SDS011;52218;51.224;-2.328;2022-11-24T08:55:30;14.43;;;2.78;;
65073;SDS011;52218;51.224;-2.328;2022-11-24T08:59:12;14.82;;;2.80;;
65073;SDS011;52218;51.224;-2.328;2022-11-24T09:02:55;16.73;;;2.70;;
65073;SDS011;52218;51.224;-2.328;2022-11-24T09:06:38;18.42;;;3.35;;
65073;SDS011;52218;51.224;-2.328;2022-11-24T09:10:20;15.10;;;2.65;;
65073;SDS011;52218;51.224;-2.328;2022-11-24T09:14:02;16.08;;;3.03;;
65073;SDS011;52218;51.224;-2.328;2022-11-24T09:17:45;14.02;;;2.47;;
65073;SDS011;52218;51.224;-2.328;2022-11-24T09:21:27;14.95;;;3.30;;
65073;SDS011;52218;51.224;-2.328;2022-11-24T09:25:10;13.23;;;2.45;;
65073;SDS011;52218;51.224;-2.328;2022-11-24T09:28:53;16.10;;;3.22;;
65073;SDS011;52218;51.224;-2.328;2022-11-24T09:32:36;14.40;;;2.92;;
65073;SDS011;52218;51.224;-2.328;2022-11-24T09:36:19;18.08;;;3.05;;
65073;SDS011;52218;51.224;-2.328;2022-11-24T09:40:01;13.13;;;2.63;;
65073;SDS011;52218;51.224;-2.328;2022-11-24T09:43:45;13.68;;;2.70;;
65073;SDS011;52218;51.224;-2.328;2022-11-24T09:51:27;15.88;;;3.08;;
65073;SDS011;52218;51.224;-2.328;2022-11-24T09:55:18;14.20;;;2.40;;
65073;SDS011;52218;51.224;-2.328;2022-11-24T09:59:22;13.27;;;2.95;;
65073;SDS011;52218;51.224;-2.328;2022-11-24T10:03:07;17.08;;;3.05;;
65073;SDS011;52218;51.224;-2.328;2022-11-24T10:10:50;14.65;;;2.72;;
65073;SDS011;52218;51.224;-2.328;2022-11-24T10:23:04;13.18;;;2.53;;
65073;SDS011;52218;51.224;-2.328;2022-11-24T10:27:02;10.55;;;2.05;;
65073;SDS011;52218;51.224;-2.328;2022-11-24T10:30:56;7.82;;;1.80;;
65073;SDS011;52218;51.224;-2.328;2022-11-24T10:35:16;10.00;;;1.90;;
65073;SDS011;52218;51.224;-2.328;2022-11-24T10:39:02;12.40;;;2.40;;
65073;SDS011;52218;51.224;-2.328;2022-11-24T10:42:51;12.13;;;2.35;;
65073;SDS011;52218;51.224;-2.328;2022-11-24T10:46:33;13.25;;;2.10;;
65073;SDS011;52218;51.224;-2.328;2022-11-24T10:54:06;6.97;;;2.05;;
65073;SDS011;52218;51.224;-2.328;2022-11-24T10:57:56;10.52;;;2.20;;
65073;SDS011;52218;51.224;-2.328;2022-11-24T11:01:55;11.07;;;1.85;;
65073;SDS011;52218;51.224;-2.328;2022-11-24T11:05:38;10.05;;;2.17;;
65073;SDS011;52218;51.224;-2.328;2022-11-24T11:09:22;9.88;;;2.20;;
65073;SDS011;52218;51.224;-2.328;2022-11-24T11:13:21;11.48;;;2.72;;
65073;SDS011;52218;51.224;-2.328;2022-11-24T11:21:32;10.98;;;2.13;;
65073;SDS011;52218;51.224;-2.328;2022-11-24T11:25:20;8.32;;;2.15;;
65073;SDS011;52218;51.224;-2.328;2022-11-24T11:29:23;13.35;;;2.50;;
65073;SDS011;52218;51.224;-2.328;2022-11-24T11:33:29;12.60;;;2.33;;
65073;SDS011;52218;51.224;-2.328;2022-11-24T11:37:32;11.48;;;2.40;;
65073;SDS011;52218;51.224;-2.328;2022-11-24T11:41:19;11.50;;;1.95;;
65073;SDS011;52218;51.224;-2.328;2022-11-24T11:45:15;9.55;;;2.15;;
65073;SDS011;52218;51.224;-2.328;2022-11-24T11:49:02;8.75;;;1.90;;
65073;SDS011;52218;51.224;-2.328;2022-11-24T12:04:56;11.13;;;2.53;;
65073;SDS011;52218;51.224;-2.328;2022-11-24T12:17:05;10.25;;;2.00;;
65073;SDS011;52218;51.224;-2.328;2022-11-24T12:21:05;9.98;;;2.20;;
65073;SDS011;52218;51.224;-2.328;2022-11-24T12:37:51;5.28;;;1.27;;
65073;SDS011;52218;51.224;-2.328;2022-11-24T12:41:34;11.35;;;2.05;;
65073;SDS011;52218;51.224;-2.328;2022-11-24T12:45:37;8.07;;;1.90;;
65073;SDS011;52218;51.224;-2.328;2022-11-24T12:49:32;7.18;;;1.80;;
65073;SDS011;52218;51.224;-2.328;2022-11-24T12:53:35;9.65;;;2.20;;
65073;SDS011;52218;51.224;-2.328;2022-11-24T13:01:39;8.13;;;1.75;;
65073;SDS011;52218;51.224;-2.328;2022-11-24T13:10:32;8.95;;;1.92;;
65073;SDS011;52218;51.224;-2.328;2022-11-24T13:14:31;11.40;;;2.38;;
65073;SDS011;52218;51.224;-2.328;2022-11-24T13:22:25;7.00;;;1.70;;
65073;SDS011;52218;51.224;-2.328;2022-11-24T13:26:13;12.23;;;2.35;;
65073;SDS011;52218;51.224;-2.328;2022-11-24T13:42:28;8.05;;;1.90;;
65073;SDS011;52218;51.224;-2.328;2022-11-24T13:54:31;9.55;;;2.00;;
65073;SDS011;52218;51.224;-2.328;2022-11-24T14:02:20;6.63;;;1.73;;
65073;SDS011;52218;51.224;-2.328;2022-11-24T14:06:03;5.22;;;1.02;;
65073;SDS011;52218;51.224;-2.328;2022-11-24T14:09:47;3.78;;;1.20;;
65073;SDS011;52218;51.224;-2.328;2022-11-24T14:13:32;2.25;;;0.75;;
65073;SDS011;52218;51.224;-2.328;2022-11-24T14:17:16;4.63;;;1.25;;
65073;SDS011;52218;51.224;-2.328;2022-11-24T14:25:01;6.20;;;1.48;;
65073;SDS011;52218;51.224;-2.328;2022-11-24T14:28:44;8.00;;;2.08;;
65073;SDS011;52218;51.224;-2.328;2022-11-24T14:32:26;7.53;;;1.90;;
65073;SDS011;52218;51.224;-2.328;2022-11-24T14:36:12;6.90;;;2.17;;
65073;SDS011;52218;51.224;-2.328;2022-11-24T14:39:55;7.53;;;1.70;;
65073;SDS011;52218;51.224;-2.328;2022-11-24T14:43:37;11.75;;;3.15;;
65073;SDS011;52218;51.224;-2.328;2022-11-24T14:51:17;9.18;;;2.72;;
65073;SDS011;52218;51.224;-2.328;2022-11-24T14:55:01;8.70;;;2.25;;
65073;SDS011;52218;51.224;-2.328;2022-11-24T14:59:03;7.88;;;2.08;;
65073;SDS011;52218;51.224;-2.328;2022-11-24T15:06:43;6.47;;;1.88;;
65073;SDS011;52218;51.224;-2.328;2022-11-24T15:10:32;5.97;;;1.20;;
65073;SDS011;52218;51.224;-2.328;2022-11-24T15:14:37;7.68;;;1.40;;
65073;SDS011;52218;51.224;-2.328;2022-11-24T15:18:38;4.72;;;1.20;;
65073;SDS011;52218;51.224;-2.328;2022-11-24T15:29:57;4.70;;;1.40;;
65073;SDS011;52218;51.224;-2.328;2022-11-24T15:33:39;7.28;;;1.90;;
65073;SDS011;52218;51.224;-2.328;2022-11-24T15:37:22;6.05;;;1.40;;
65073;SDS011;52218;51.224;-2.328;2022-11-24T15:41:09;4.18;;;0.95;;
65073;SDS011;52218;51.224;-2.328;2022-11-24T15:45:02;5.35;;;1.27;;
65073;SDS011;52218;51.224;-2.328;2022-11-24T15:48:44;4.43;;;1.45;;
65073;SDS011;52218;51.224;-2.328;2022-11-24T15:52:26;7.95;;;1.77;;
65073;SDS011;52218;51.224;-2.328;2022-11-24T15:56:13;8.85;;;2.00;;
65073;SDS011;52218;51.224;-2.328;2022-11-24T16:00:01;7.15;;;1.63;;
65073;SDS011;52218;51.224;-2.328;2022-11-24T16:03:43;8.63;;;1.90;;
65073;SDS011;52218;51.224;-2.328;2022-11-24T16:07:28;8.90;;;1.85;;
65073;SDS011;52218;51.224;-2.328;2022-11-24T16:11:12;7.18;;;1.95;;
65073;SDS011;52218;51.224;-2.328;2022-11-24T16:14:54;7.60;;;1.55;;
65073;SDS011;52218;51.224;-2.328;2022-11-24T16:18:36;10.20;;;2.20;;
65073;SDS011;52218;51.224;-2.328;2022-11-24T16:22:20;10.02;;;3.22;;
65073;SDS011;52218;51.224;-2.328;2022-11-24T16:26:02;13.55;;;2.88;;
65073;SDS011;52218;51.224;-2.328;2022-11-24T16:29:45;11.82;;;3.25;;
65073;SDS011;52218;51.224;-2.328;2022-11-24T16:33:27;11.80;;;4.32;;
65073;SDS011;52218;51.224;-2.328;2022-11-24T16:37:10;11.98;;;4.28;;
65073;SDS011;52218;51.224;-2.328;2022-11-24T16:40:52;17.65;;;5.40;;
65073;SDS011;52218;51.224;-2.328;2022-11-24T16:44:36;14.77;;;5.28;;
65073;SDS011;52218;51.224;-2.328;2022-11-24T16:48:18;17.52;;;7.15;;
65073;SDS011;52218;51.224;-2.328;2022-11-24T16:52:00;13.15;;;4.20;;
65073;SDS011;52218;51.224;-2.328;2022-11-24T16:55:42;10.35;;;3.60;;
65073;SDS011;52218;51.224;-2.328;2022-11-24T16:59:24;10.70;;;3.40;;
65073;SDS011;52218;51.224;-2.328;2022-11-24T17:03:06;8.60;;;2.45;;
65073;SDS011;52218;51.224;-2.328;2022-11-24T17:06:48;9.93;;;2.17;;
65073;SDS011;52218;51.224;-2.328;2022-11-24T17:10:30;16.58;;;2.90;;
65073;SDS011;52218;51.224;-2.328;2022-11-24T17:14:12;11.27;;;3.45;;
65073;SDS011;52218;51.224;-2.328;2022-11-24T17:17:54;8.15;;;2.40;;
65073;SDS011;52218;51.224;-2.328;2022-11-24T17:21:56;7.38;;;1.83;;
65073;SDS011;52218;51.224;-2.328;2022-11-24T17:25:38;10.60;;;3.05;;
65073;SDS011;52218;51.224;-2.328;2022-11-24T17:29:20;8.63;;;2.38;;
65073;SDS011;52218;51.224;-2.328;2022-11-24T17:33:02;7.65;;;1.95;;
65073;SDS011;52218;51.224;-2.328;2022-11-24T17:36:44;7.03;;;1.88;;
65073;SDS011;52218;51.224;-2.328;2022-11-24T17:40:27;9.20;;;2.50;;
65073;SDS011;52218;51.224;-2.328;2022-11-24T17:44:10;8.73;;;2.58;;
65073;SDS011;52218;51.224;-2.328;2022-11-24T17:47:53;10.98;;;2.20;;
65073;SDS011;52218;51.224;-2.328;2022-11-24T17:51:35;11.80;;;2.97;;
65073;SDS011;52218;51.224;-2.328;2022-11-24T17:55:17;11.10;;;3.30;;
65073;SDS011;52218;51.224;-2.328;2022-11-24T17:58:59;10.70;;;3.15;;
65073;SDS011;52218;51.224;-2.328;2022-11-24T18:02:41;9.68;;;2.70;;
65073;SDS011;52218;51.224;-2.328;2022-11-24T18:06:24;8.60;;;2.45;;
65073;SDS011;52218;51.224;-2.328;2022-11-24T18:10:07;11.27;;;2.58;;
65073;SDS011;52218;51.224;-2.328;2022-11-24T18:13:50;7.75;;;2.60;;
65073;SDS011;52218;51.224;-2.328;2022-11-24T18:17:41;6.10;;;2.10;;
65073;SDS011;52218;51.224;-2.328;2022-11-24T18:21:23;9.15;;;2.35;;
65073;SDS011;52218;51.224;-2.328;2022-11-24T18:25:05;9.43;;;2.33;;
65073;SDS011;52218;51.224;-2.328;2022-11-24T18:28:47;9.07;;;1.90;;
65073;SDS011;52218;51.224;-2.328;2022-11-24T18:32:31;10.15;;;1.80;;
65073;SDS011;52218;51.224;-2.328;2022-11-24T18:36:14;8.50;;;2.10;;
65073;SDS011;52218;51.224;-2.328;2022-11-24T18:39:58;6.97;;;2.05;;
65073;SDS011;52218;51.224;-2.328;2022-11-24T18:43:40;11.82;;;2.20;;
65073;SDS011;52218;51.224;-2.328;2022-11-24T18:47:23;7.75;;;2.13;;
65073;SDS011;52218;51.224;-2.328;2022-11-24T18:51:05;12.52;;;2.90;;
65073;SDS011;52218;51.224;-2.328;2022-11-24T18:54:48;10.27;;;2.42;;
65073;SDS011;52218;51.224;-2.328;2022-11-24T18:58:31;9.63;;;2.60;;
65073;SDS011;52218;51.224;-2.328;2022-11-24T19:02:15;8.65;;;2.63;;
65073;SDS011;52218;51.224;-2.328;2022-11-24T19:06:00;8.85;;;3.25;;
65073;SDS011;52218;51.224;-2.328;2022-11-24T19:09:46;10.20;;;3.75;;
65073;SDS011;52218;51.224;-2.328;2022-11-24T19:13:28;8.52;;;2.50;;
65073;SDS011;52218;51.224;-2.328;2022-11-24T19:17:10;9.95;;;3.22;;
65073;SDS011;52218;51.224;-2.328;2022-11-24T19:20:54;9.82;;;2.70;;
65073;SDS011;52218;51.224;-2.328;2022-11-24T19:24:37;9.20;;;2.67;;
65073;SDS011;52218;51.224;-2.328;2022-11-24T19:28:19;9.55;;;2.92;;
65073;SDS011;52218;51.224;-2.328;2022-11-24T19:32:01;9.18;;;2.97;;
65073;SDS011;52218;51.224;-2.328;2022-11-24T19:35:44;9.80;;;2.63;;
65073;SDS011;52218;51.224;-2.328;2022-11-24T19:39:26;10.85;;;3.20;;
65073;SDS011;52218;51.224;-2.328;2022-11-24T19:43:08;10.57;;;3.85;;
65073;SDS011;52218;51.224;-2.328;2022-11-24T19:46:50;9.98;;;3.28;;
65073;SDS011;52218;51.224;-2.328;2022-11-24T19:50:32;7.53;;;2.90;;
65073;SDS011;52218;51.224;-2.328;2022-11-24T19:54:14;9.85;;;2.53;;
65073;SDS011;52218;51.224;-2.328;2022-11-24T19:57:57;7.32;;;2.85;;
65073;SDS011;52218;51.224;-2.328;2022-11-24T20:01:39;10.27;;;4.13;;
65073;SDS011;52218;51.224;-2.328;2022-11-24T20:05:22;13.07;;;3.50;;
65073;SDS011;52218;51.224;-2.328;2022-11-24T20:09:05;15.68;;;3.47;;
65073;SDS011;52218;51.224;-2.328;2022-11-24T20:12:49;10.77;;;3.83;;
65073;SDS011;52218;51.224;-2.328;2022-11-24T20:16:32;13.40;;;4.57;;
65073;SDS011;52218;51.224;-2.328;2022-11-24T20:20:15;10.30;;;3.25;;
65073;SDS011;52218;51.224;-2.328;2022-11-24T20:23:58;12.25;;;2.53;;
65073;SDS011;52218;51.224;-2.328;2022-11-24T20:27:41;9.45;;;2.70;;
65073;SDS011;52218;51.224;-2.328;2022-11-24T20:31:30;12.85;;;2.92;;
65073;SDS011;52218;51.224;-2.328;2022-11-24T20:35:14;9.43;;;3.05;;
65073;SDS011;52218;51.224;-2.328;2022-11-24T20:38:59;10.25;;;3.00;;
65073;SDS011;52218;51.224;-2.328;2022-11-24T20:42:42;14.57;;;2.78;;
65073;SDS011;52218;51.224;-2.328;2022-11-24T20:46:26;12.55;;;2.50;;
65073;SDS011;52218;51.224;-2.328;2022-11-24T20:50:09;10.40;;;3.00;;
65073;SDS011;52218;51.224;-2.328;2022-11-24T20:53:52;7.43;;;1.77;;
65073;SDS011;52218;51.224;-2.328;2022-11-24T20:57:36;10.25;;;2.55;;
65073;SDS011;52218;51.224;-2.328;2022-11-24T21:01:19;12.45;;;2.88;;
65073;SDS011;52218;51.224;-2.328;2022-11-24T21:05:12;8.82;;;2.08;;
65073;SDS011;52218;51.224;-2.328;2022-11-24T21:08:54;9.10;;;2.13;;
65073;SDS011;52218;51.224;-2.328;2022-11-24T21:12:43;8.55;;;2.20;;
65073;SDS011;52218;51.224;-2.328;2022-11-24T21:16:26;8.13;;;1.70;;
65073;SDS011;52218;51.224;-2.328;2022-11-24T21:20:10;11.77;;;2.30;;
65073;SDS011;52218;51.224;-2.328;2022-11-24T21:23:53;8.35;;;2.08;;
65073;SDS011;52218;51.224;-2.328;2022-11-24T21:27:35;6.93;;;1.85;;
65073;SDS011;52218;51.224;-2.328;2022-11-24T21:31:18;6.75;;;1.63;;
65073;SDS011;52218;51.224;-2.328;2022-11-24T21:35:01;9.30;;;1.95;;
65073;SDS011;52218;51.224;-2.328;2022-11-24T21:38:47;10.18;;;2.80;;
65073;SDS011;52218;51.224;-2.328;2022-11-24T21:42:33;9.02;;;2.15;;
65073;SDS011;52218;51.224;-2.328;2022-11-24T21:46:15;7.75;;;1.85;;
65073;SDS011;52218;51.224;-2.328;2022-11-24T21:49:58;7.05;;;1.80;;
65073;SDS011;52218;51.224;-2.328;2022-11-24T21:53:40;8.82;;;2.25;;
65073;SDS011;52218;51.224;-2.328;2022-11-24T21:57:22;10.52;;;2.10;;
65073;SDS011;52218;51.224;-2.328;2022-11-24T22:01:05;12.20;;;2.60;;
65073;SDS011;52218;51.224;-2.328;2022-11-24T22:04:51;6.13;;;1.70;;
65073;SDS011;52218;51.224;-2.328;2022-11-24T22:08:33;5.47;;;1.60;;
65073;SDS011;52218;51.224;-2.328;2022-11-24T22:12:15;8.55;;;1.90;;
65073;SDS011;52218;51.224;-2.328;2022-11-24T22:15:58;6.38;;;1.48;;
65073;SDS011;52218;51.224;-2.328;2022-11-24T22:19:45;7.28;;;1.80;;
65073;SDS011;52218;51.224;-2.328;2022-11-24T22:23:28;9.85;;;2.15;;
65073;SDS011;52218;51.224;-2.328;2022-11-24T22:27:10;10.20;;;2.22;;
65073;SDS011;52218;51.224;-2.328;2022-11-24T22:30:52;7.97;;;2.00;;
65073;SDS011;52218;51.224;-2.328;2022-11-24T22:34:34;10.13;;;2.05;;
65073;SDS011;52218;51.224;-2.328;2022-11-24T22:38:16;8.60;;;2.30;;
65073;SDS011;52218;51.224;-2.328;2022-11-24T22:41:58;8.80;;;1.73;;
65073;SDS011;52218;51.224;-2.328;2022-11-24T22:45:40;10.82;;;1.80;;
65073;SDS011;52218;51.224;-2.328;2022-11-24T22:49:22;10.73;;;2.10;;
65073;SDS011;52218;51.224;-2.328;2022-11-24T22:53:04;9.52;;;2.22;;
65073;SDS011;52218;51.224;-2.328;2022-11-24T22:56:46;13.35;;;2.17;;
65073;SDS011;52218;51.224;-2.328;2022-11-24T23:00:28;7.57;;;2.13;;
65073;SDS011;52218;51.224;-2.328;2022-11-24T23:04:10;7.55;;;1.48;;
65073;SDS011;52218;51.224;-2.328;2022-11-24T23:07:52;8.82;;;1.92;;
65073;SDS011;52218;51.224;-2.328;2022-11-24T23:11:35;6.10;;;1.80;;
65073;SDS011;52218;51.224;-2.328;2022-11-24T23:15:19;7.13;;;1.80;;
65073;SDS011;52218;51.224;-2.328;2022-11-24T23:19:01;8.63;;;1.95;;
65073;SDS011;52218;51.224;-2.328;2022-11-24T23:22:43;11.13;;;2.10;;
65073;SDS011;52218;51.224;-2.328;2022-11-24T23:26:26;7.60;;;2.45;;
65073;SDS011;52218;51.224;-2.328;2022-11-24T23:30:09;7.03;;;1.73;;
65073;SDS011;52218;51.224;-2.328;2022-11-24T23:33:51;9.40;;;2.03;;
65073;SDS011;52218;51.224;-2.328;2022-11-24T23:37:34;11.27;;;1.67;;
65073;SDS011;52218;51.224;-2.328;2022-11-24T23:41:35;7.70;;;1.70;;
65073;SDS011;52218;51.224;-2.328;2022-11-24T23:45:17;11.55;;;2.28;;
65073;SDS011;52218;51.224;-2.328;2022-11-24T23:48:59;8.32;;;1.83;;
65073;SDS011;52218;51.224;-2.328;2022-11-24T23:52:41;6.28;;;1.45;;
65073;SDS011;52218;51.224;-2.328;2022-11-24T23:56:24;8.60;;;1.80;;
